createdAt,value
2017-09-29T00:01:05.714Z,22.87
2017-09-29T00:03:33.939Z,26.90
2017-09-29T00:06:01.428Z,25.80
2017-09-29T00:08:28.920Z,24.90
2017-09-29T00:10:57.321Z,20.87
2017-09-29T00:13:24.828Z,27.57
2017-09-29T00:15:53.092Z,25.60
2017-09-29T00:18:21.439Z,28.40
2017-09-29T00:20:48.900Z,29.57
2017-09-29T00:23:16.404Z,26.03
2017-09-29T00:25:43.927Z,23.90
2017-09-29T00:28:11.510Z,22.00
2017-09-29T00:30:39.785Z,18.00
2017-09-29T00:33:08.044Z,21.80
2017-09-29T00:35:35.522Z,24.97
2017-09-29T00:38:03.795Z,24.33
2017-09-29T00:40:32.040Z,17.13
2017-09-29T00:42:59.531Z,24.70
2017-09-29T00:45:27.784Z,32.07
2017-09-29T00:47:55.253Z,17.30
2017-09-29T00:50:22.724Z,26.70
2017-09-29T00:52:51.002Z,44.53
2017-09-29T00:55:19.254Z,24.43
2017-09-29T00:57:46.732Z,30.23
2017-09-29T01:00:14.983Z,33.47
2017-09-29T01:02:43.969Z,32.83
2017-09-29T01:05:11.435Z,34.67
2017-09-29T01:07:38.996Z,33.73
2017-09-29T01:10:06.459Z,20.17
2017-09-29T01:12:34.733Z,26.13
2017-09-29T01:15:03.026Z,38.53
2017-09-29T01:17:31.270Z,32.57
2017-09-29T01:19:58.760Z,27.40
2017-09-29T01:22:27.128Z,21.63
2017-09-29T01:24:55.390Z,37.97
2017-09-29T01:27:22.859Z,25.17
2017-09-29T01:29:51.111Z,31.90
2017-09-29T01:32:18.679Z,22.70
2017-09-29T01:34:46.155Z,29.57
2017-09-29T01:37:14.437Z,25.30
2017-09-29T01:39:41.989Z,29.90
2017-09-29T01:42:10.236Z,22.40
2017-09-29T01:44:37.714Z,21.10
2017-09-29T01:47:05.972Z,17.57
2017-09-29T01:49:33.532Z,27.73
2017-09-29T01:52:01.003Z,31.13
2017-09-29T01:54:28.563Z,22.20
2017-09-29T01:56:56.863Z,33.63
2017-09-29T01:59:24.327Z,25.23
2017-09-29T02:01:51.794Z,35.83
2017-09-29T02:04:19.271Z,35.67
2017-09-29T02:06:46.757Z,34.60
2017-09-29T02:09:14.225Z,24.83
2017-09-29T02:11:42.527Z,27.73
2017-09-29T02:14:10.029Z,21.37
2017-09-29T02:16:37.619Z,29.20
2017-09-29T02:19:05.896Z,25.77
2017-09-29T02:21:33.442Z,42.47
2017-09-29T02:24:00.920Z,24.80
2017-09-29T02:26:29.215Z,33.17
2017-09-29T02:28:56.702Z,35.20
2017-09-29T02:31:24.174Z,24.70
2017-09-29T02:33:51.663Z,30.77
2017-09-29T02:36:19.940Z,31.13
2017-09-29T02:38:48.181Z,34.50
2017-09-29T02:41:15.647Z,29.47
2017-09-29T02:43:43.895Z,34.70
2017-09-29T02:46:11.388Z,36.77
2017-09-29T02:48:38.859Z,27.53
2017-09-29T02:51:07.115Z,33.57
2017-09-29T02:53:34.679Z,28.37
2017-09-29T02:56:02.155Z,36.53
2017-09-29T02:58:31.468Z,25.13
2017-09-29T03:01:00.363Z,35.67
2017-09-29T03:03:29.083Z,42.10
2017-09-29T03:05:58.009Z,34.37
2017-09-29T03:08:26.297Z,29.67
2017-09-29T03:10:54.565Z,33.77
2017-09-29T03:13:22.831Z,38.97
2017-09-29T03:15:51.095Z,36.43
2017-09-29T03:18:19.479Z,31.40
2017-09-29T03:20:47.725Z,24.73
2017-09-29T03:23:15.201Z,40.50
2017-09-29T03:25:42.673Z,37.33
2017-09-29T03:28:10.184Z,42.57
2017-09-29T03:30:37.655Z,42.60
2017-09-29T03:33:05.131Z,26.60
2017-09-29T03:35:32.608Z,30.73
2017-09-29T03:38:00.839Z,44.53
2017-09-29T03:40:28.362Z,36.03
2017-09-29T03:42:56.619Z,34.30
2017-09-29T03:45:24.852Z,37.87
2017-09-29T03:47:52.331Z,29.97
2017-09-29T03:50:21.255Z,32.00
2017-09-29T03:52:50.267Z,45.23
2017-09-29T03:55:18.562Z,33.33
2017-09-29T03:57:47.450Z,30.50
2017-09-29T04:00:15.971Z,46.87
2017-09-29T04:02:43.451Z,42.63
2017-09-29T04:05:10.923Z,40.17
2017-09-29T04:07:38.431Z,36.57
2017-09-29T04:10:05.904Z,45.33
2017-09-29T04:12:34.139Z,36.07
2017-09-29T04:15:01.728Z,50.13
2017-09-29T04:17:30.704Z,27.20
2017-09-29T04:19:58.188Z,33.47
2017-09-29T04:22:26.449Z,32.00
2017-09-29T04:24:53.967Z,38.57
2017-09-29T04:27:21.457Z,31.97
2017-09-29T04:29:49.741Z,54.77
2017-09-29T04:32:17.972Z,33.67
2017-09-29T04:34:45.461Z,49.40
2017-09-29T04:37:12.945Z,32.50
2017-09-29T04:39:41.197Z,36.07
2017-09-29T04:42:08.673Z,47.73
2017-09-29T04:44:36.151Z,42.87
2017-09-29T04:47:03.679Z,44.40
2017-09-29T04:49:31.915Z,49.53
2017-09-29T04:51:59.428Z,31.43
2017-09-29T04:54:27.699Z,28.83
2017-09-29T04:56:55.947Z,49.17
2017-09-29T04:59:23.548Z,49.00
2017-09-29T05:01:51.803Z,31.87
2017-09-29T05:04:19.350Z,36.07
2017-09-29T05:06:46.830Z,32.73
2017-09-29T05:09:15.212Z,29.00
2017-09-29T05:11:43.467Z,43.37
2017-09-29T05:14:11.716Z,37.57
2017-09-29T05:16:39.212Z,36.17
2017-09-29T05:19:07.490Z,33.80
2017-09-29T05:21:35.753Z,34.23
2017-09-29T05:24:03.370Z,35.30
2017-09-29T05:26:31.682Z,43.73
2017-09-29T05:29:00.014Z,42.50
2017-09-29T05:31:27.483Z,46.13
2017-09-29T05:33:54.974Z,49.97
2017-09-29T05:36:22.459Z,46.23
2017-09-29T05:38:50.691Z,43.10
2017-09-29T05:41:18.167Z,41.17
2017-09-29T05:43:46.451Z,46.23
2017-09-29T05:46:14.723Z,53.53
2017-09-29T05:48:42.201Z,35.70
2017-09-29T05:51:10.456Z,33.17
2017-09-29T05:53:37.924Z,43.37
2017-09-29T05:56:06.167Z,28.83
2017-09-29T05:58:33.689Z,32.80
2017-09-29T06:01:01.320Z,37.37
2017-09-29T06:03:29.628Z,35.53
2017-09-29T06:05:57.113Z,28.20
2017-09-29T06:08:25.424Z,43.97
2017-09-29T06:10:53.373Z,37.33
2017-09-29T06:13:21.932Z,28.00
2017-09-29T06:15:49.399Z,41.77
2017-09-29T06:18:17.201Z,33.37
2017-09-29T06:20:44.703Z,40.33
2017-09-29T06:23:13.917Z,30.57
2017-09-29T06:25:41.413Z,35.90
2017-09-29T06:28:09.680Z,30.40
2017-09-29T06:30:38.745Z,36.80
2017-09-29T06:33:09.329Z,45.23
2017-09-29T06:35:39.474Z,33.43
2017-09-29T06:38:07.860Z,34.27
2017-09-29T06:40:35.346Z,41.00
2017-09-29T06:43:03.644Z,40.70
2017-09-29T06:45:31.884Z,33.33
2017-09-29T06:47:59.375Z,38.23
2017-09-29T06:50:27.611Z,39.00
2017-09-29T06:52:55.140Z,35.37
2017-09-29T06:55:22.626Z,37.67
2017-09-29T06:57:50.100Z,46.87
2017-09-29T07:00:17.578Z,35.50
2017-09-29T07:02:45.815Z,41.57
2017-09-29T07:05:13.294Z,42.70
2017-09-29T07:07:40.759Z,43.77
2017-09-29T07:10:09.011Z,38.77
2017-09-29T07:12:36.585Z,43.87
2017-09-29T07:15:04.667Z,36.20
2017-09-29T07:17:32.913Z,34.50
2017-09-29T07:20:00.390Z,39.53
2017-09-29T07:22:27.866Z,33.97
2017-09-29T07:24:59.106Z,35.00
2017-09-29T07:27:31.209Z,35.93
2017-09-29T07:30:00.490Z,38.27
2017-09-29T07:32:29.688Z,41.53
2017-09-29T07:34:58.091Z,35.30
2017-09-29T07:37:25.578Z,32.57
2017-09-29T07:39:53.105Z,36.03
2017-09-29T07:42:21.509Z,32.00
2017-09-29T07:44:49.083Z,30.60
2017-09-29T07:47:16.560Z,31.83
2017-09-29T07:49:45.024Z,30.57
2017-09-29T07:52:12.949Z,31.83
2017-09-29T07:54:40.583Z,30.63
2017-09-29T07:57:08.158Z,30.33
2017-09-29T07:59:35.628Z,29.17
2017-09-29T08:02:03.140Z,27.23
2017-09-29T08:04:31.600Z,31.53
2017-09-29T08:07:00.781Z,30.20
2017-09-29T08:09:28.723Z,31.50
2017-09-29T08:11:56.290Z,26.90
2017-09-29T08:14:24.261Z,29.30
2017-09-29T08:16:52.165Z,24.80
2017-09-29T08:19:19.726Z,25.60
2017-09-29T08:21:47.963Z,26.10
2017-09-29T08:24:15.500Z,26.27
2017-09-29T08:26:42.980Z,26.70
2017-09-29T08:29:10.463Z,25.53
2017-09-29T08:31:38.034Z,25.90
2017-09-29T08:34:06.403Z,26.83
2017-09-29T08:36:33.947Z,25.77
2017-09-29T08:39:01.475Z,26.07
2017-09-29T08:41:28.959Z,25.97
2017-09-29T08:43:56.456Z,23.93
2017-09-29T08:46:24.696Z,24.97
2017-09-29T08:48:52.289Z,25.30
2017-09-29T08:51:20.524Z,24.70
2017-09-29T08:53:47.991Z,23.50
2017-09-29T08:56:15.550Z,26.63
2017-09-29T08:58:43.282Z,24.73
2017-09-29T09:01:10.784Z,23.77
2017-09-29T09:03:38.260Z,24.70
2017-09-29T09:06:06.523Z,26.23
2017-09-29T09:08:34.763Z,24.33
2017-09-29T09:11:02.345Z,24.83
2017-09-29T09:13:29.908Z,24.77
2017-09-29T09:15:57.368Z,25.13
2017-09-29T09:18:25.620Z,26.53
2017-09-29T09:20:54.608Z,23.30
2017-09-29T09:23:22.084Z,24.60
2017-09-29T09:25:49.586Z,24.23
2017-09-29T09:28:17.065Z,25.10
2017-09-29T09:30:44.536Z,25.60
2017-09-29T09:33:12.022Z,23.90
2017-09-29T09:35:41.476Z,23.87
2017-09-29T09:38:08.969Z,23.40
2017-09-29T09:40:36.440Z,20.63
2017-09-29T09:43:04.710Z,21.57
2017-09-29T09:45:32.194Z,22.20
2017-09-29T09:47:59.700Z,21.60
2017-09-29T09:50:27.188Z,20.10
2017-09-29T09:52:55.462Z,19.57
2017-09-29T09:55:22.936Z,18.90
2017-09-29T09:57:51.191Z,19.03
2017-09-29T10:00:18.684Z,20.53
2017-09-29T10:02:46.176Z,20.50
2017-09-29T10:05:13.734Z,19.23
2017-09-29T10:07:41.241Z,20.17
2017-09-29T10:10:09.493Z,21.10
2017-09-29T10:12:37.019Z,20.97
2017-09-29T10:15:04.807Z,20.40
2017-09-29T10:17:32.351Z,18.97
2017-09-29T10:19:59.860Z,20.30
2017-09-29T10:22:28.104Z,20.87
2017-09-29T10:24:55.580Z,22.00
2017-09-29T10:27:24.707Z,23.20
2017-09-29T10:29:52.178Z,20.60
2017-09-29T10:32:19.704Z,22.03
2017-09-29T10:34:47.239Z,21.60
2017-09-29T10:37:14.749Z,22.17
2017-09-29T10:39:42.232Z,21.00
2017-09-29T10:42:10.503Z,20.10
2017-09-29T10:44:38.077Z,21.87
2017-09-29T10:47:06.268Z,17.60
2017-09-29T10:49:33.949Z,18.63
2017-09-29T10:52:03.016Z,19.57
2017-09-29T10:54:30.544Z,20.97
2017-09-29T10:56:58.140Z,19.90
2017-09-29T10:59:26.424Z,19.87
2017-09-29T11:01:53.971Z,17.73
2017-09-29T11:04:22.253Z,20.03
2017-09-29T11:06:50.524Z,19.33
2017-09-29T11:09:18.783Z,17.10
2017-09-29T11:11:46.317Z,18.60
2017-09-29T11:14:13.803Z,18.73
2017-09-29T11:16:41.287Z,17.40
2017-09-29T11:19:08.836Z,16.60
2017-09-29T11:21:37.339Z,18.97
2017-09-29T11:24:04.837Z,18.20
2017-09-29T11:26:32.466Z,15.10
2017-09-29T11:29:00.972Z,17.63
2017-09-29T11:31:28.464Z,16.67
2017-09-29T11:33:55.933Z,15.57
2017-09-29T11:36:24.609Z,16.80
2017-09-29T11:38:52.857Z,16.40
2017-09-29T11:41:21.044Z,15.30
2017-09-29T11:43:49.311Z,15.53
2017-09-29T11:46:17.589Z,14.40
2017-09-29T11:48:45.830Z,15.00
2017-09-29T11:51:13.338Z,15.10
2017-09-29T11:53:41.592Z,14.03
2017-09-29T11:56:09.095Z,14.40
2017-09-29T11:58:36.616Z,14.20
2017-09-29T12:01:04.152Z,13.33
2017-09-29T12:03:31.675Z,12.20
2017-09-29T12:05:59.180Z,12.50
2017-09-29T12:08:26.656Z,11.57
2017-09-29T12:10:55.650Z,12.80
2017-09-29T12:13:23.937Z,11.13
2017-09-29T12:15:52.173Z,11.03
2017-09-29T12:18:20.269Z,12.77
2017-09-29T12:20:48.550Z,9.97
2017-09-29T12:23:16.812Z,10.63
2017-09-29T12:25:44.273Z,9.67
2017-09-29T12:28:11.844Z,10.50
2017-09-29T12:30:40.176Z,10.00
2017-09-29T12:33:07.771Z,9.57
2017-09-29T12:35:36.045Z,10.47
2017-09-29T12:38:04.341Z,9.83
2017-09-29T12:40:32.727Z,9.90
2017-09-29T12:43:00.212Z,9.50
2017-09-29T12:45:27.685Z,9.63
2017-09-29T12:47:55.170Z,9.40
2017-09-29T12:50:23.411Z,8.10
2017-09-29T12:52:50.900Z,7.50
2017-09-29T12:55:19.495Z,8.70
2017-09-29T12:57:46.972Z,7.73
2017-09-29T13:00:14.451Z,7.70
2017-09-29T13:02:41.935Z,9.20
2017-09-29T13:05:09.420Z,7.73
2017-09-29T13:07:36.888Z,7.60
2017-09-29T13:10:05.964Z,7.50
2017-09-29T13:12:34.225Z,7.20
2017-09-29T13:15:01.812Z,5.87
2017-09-29T13:17:30.077Z,7.37
2017-09-29T13:19:58.160Z,6.60
2017-09-29T13:22:26.411Z,6.10
2017-09-29T13:24:53.904Z,6.87
2017-09-29T13:27:22.161Z,6.10
2017-09-29T13:29:49.647Z,6.13
2017-09-29T13:32:17.108Z,5.87
2017-09-29T13:34:44.632Z,6.70
2017-09-29T13:37:12.383Z,5.90
2017-09-29T13:39:39.883Z,6.10
2017-09-29T13:42:07.411Z,6.27
2017-09-29T13:44:35.702Z,5.90
2017-09-29T13:47:04.050Z,5.80
2017-09-29T13:49:32.023Z,7.60
2017-09-29T13:52:01.077Z,6.87
2017-09-29T13:54:28.578Z,6.50
2017-09-29T13:56:56.319Z,6.00
2017-09-29T13:59:23.799Z,6.70
2017-09-29T14:01:51.359Z,5.27
2017-09-29T14:04:20.361Z,6.07
2017-09-29T14:06:48.598Z,5.80
2017-09-29T14:09:16.060Z,5.30
2017-09-29T14:11:43.571Z,6.23
2017-09-29T14:14:11.100Z,5.37
2017-09-29T14:16:40.303Z,6.57
2017-09-29T14:19:08.551Z,6.80
2017-09-29T14:21:36.036Z,5.63
2017-09-29T14:24:04.303Z,5.50
2017-09-29T14:26:31.782Z,5.97
2017-09-29T14:29:00.036Z,5.50
2017-09-29T14:31:28.264Z,6.30
2017-09-29T14:33:55.727Z,6.60
2017-09-29T14:36:23.931Z,6.87
2017-09-29T14:38:52.986Z,6.30
2017-09-29T14:41:20.469Z,7.80
2017-09-29T14:43:47.984Z,7.27
2017-09-29T14:46:15.500Z,5.70
2017-09-29T14:48:43.764Z,6.80
2017-09-29T14:51:12.144Z,6.00
2017-09-29T14:53:39.633Z,6.50
2017-09-29T14:56:07.868Z,6.80
2017-09-29T14:58:35.415Z,6.57
2017-09-29T15:01:02.937Z,7.00
2017-09-29T15:03:31.391Z,7.57
2017-09-29T15:05:59.665Z,8.10
2017-09-29T15:08:27.972Z,7.20
2017-09-29T15:10:55.465Z,7.90
2017-09-29T15:13:22.969Z,7.70
2017-09-29T15:15:51.246Z,7.90
2017-09-29T15:18:18.769Z,8.20
2017-09-29T15:20:46.260Z,8.60
2017-09-29T15:23:13.862Z,8.20
2017-09-29T15:25:41.328Z,8.77
2017-09-29T15:28:08.849Z,7.13
2017-09-29T15:30:36.345Z,8.27
2017-09-29T15:33:03.837Z,6.97
2017-09-29T15:35:32.080Z,8.07
2017-09-29T15:38:01.535Z,7.47
2017-09-29T15:40:29.768Z,7.87
2017-09-29T15:42:57.250Z,10.17
2017-09-29T15:45:25.509Z,8.10
2017-09-29T15:47:53.005Z,9.60
2017-09-29T15:50:20.567Z,8.90
2017-09-29T15:52:48.115Z,9.30
2017-09-29T15:55:16.368Z,9.87
2017-09-29T15:57:44.644Z,9.20
2017-09-29T16:00:12.117Z,10.00
2017-09-29T16:02:39.678Z,9.60
2017-09-29T16:05:07.854Z,9.77
2017-09-29T16:07:36.169Z,10.20
2017-09-29T16:10:03.695Z,7.50
2017-09-29T16:12:31.212Z,9.20
2017-09-29T16:14:58.750Z,10.03
2017-09-29T16:17:27.052Z,8.70
2017-09-29T16:19:55.716Z,8.57
2017-09-29T16:22:23.187Z,8.97
2017-09-29T16:24:50.655Z,10.40
2017-09-29T16:27:18.175Z,8.43
2017-09-29T16:29:45.683Z,11.57
2017-09-29T16:32:13.947Z,7.73
2017-09-29T16:34:41.452Z,10.77
2017-09-29T16:37:08.961Z,10.60
2017-09-29T16:39:36.446Z,13.87
2017-09-29T16:42:03.925Z,14.60
2017-09-29T16:44:31.397Z,17.73
2017-09-29T16:46:58.881Z,18.30
2017-09-29T16:49:26.411Z,19.77
2017-09-29T16:51:53.904Z,18.83
2017-09-29T16:54:21.530Z,19.80
2017-09-29T16:56:49.091Z,20.40
2017-09-29T16:59:16.688Z,20.07
2017-09-29T17:01:44.182Z,19.40
2017-09-29T17:04:11.652Z,21.43
2017-09-29T17:06:39.163Z,22.73
2017-09-29T17:09:07.551Z,22.50
2017-09-29T17:11:38.916Z,21.80
2017-09-29T17:14:11.693Z,22.50
2017-09-29T17:16:39.299Z,21.43
2017-09-29T17:19:06.775Z,22.77
2017-09-29T17:21:34.260Z,21.70
2017-09-29T17:24:02.523Z,19.47
2017-09-29T17:26:30.786Z,18.33
2017-09-29T17:28:58.343Z,19.00
2017-09-29T17:31:25.816Z,19.00
2017-09-29T17:33:54.073Z,17.00
2017-09-29T17:36:22.636Z,17.30
2017-09-29T17:38:50.519Z,15.43
2017-09-29T17:41:18.783Z,14.63
2017-09-29T17:43:46.258Z,12.60
2017-09-29T17:46:14.529Z,12.13
2017-09-29T17:48:42.406Z,11.43
2017-09-29T17:51:09.939Z,12.20
2017-09-29T17:53:37.487Z,11.90
2017-09-29T17:56:05.978Z,12.27
2017-09-29T17:58:35.237Z,12.40
2017-09-29T18:01:02.732Z,13.00
2017-09-29T18:03:30.256Z,11.50
2017-09-29T18:05:57.753Z,12.40
2017-09-29T18:08:25.261Z,10.97
2017-09-29T18:10:52.946Z,13.40
2017-09-29T18:13:20.456Z,12.80
2017-09-29T18:15:47.932Z,13.00
2017-09-29T18:18:16.175Z,15.37
2017-09-29T18:20:45.163Z,13.63
2017-09-29T18:23:12.677Z,13.60
2017-09-29T18:25:40.150Z,13.87
2017-09-29T18:28:07.663Z,13.70
2017-09-29T18:30:36.029Z,12.37
2017-09-29T18:33:03.496Z,14.20
2017-09-29T18:35:31.958Z,14.13
2017-09-29T18:37:59.536Z,12.03
2017-09-29T18:40:27.798Z,11.80
2017-09-29T18:42:58.068Z,12.33
2017-09-29T18:45:49.859Z,11.80
2017-09-29T18:48:18.328Z,11.60
2017-09-29T18:50:45.793Z,12.67
2017-09-29T18:53:14.267Z,12.90
2017-09-29T18:55:42.547Z,12.13
2017-09-29T18:58:10.020Z,11.70
2017-09-29T19:00:38.276Z,10.73
2017-09-29T19:03:07.177Z,10.53
2017-09-29T19:05:35.458Z,9.03
2017-09-29T19:08:03.696Z,9.80
2017-09-29T19:10:31.257Z,11.30
2017-09-29T19:12:59.601Z,10.10
2017-09-29T19:15:27.113Z,10.73
2017-09-29T19:17:55.434Z,9.93
2017-09-29T19:20:23.276Z,10.43
2017-09-29T19:22:50.757Z,9.27
2017-09-29T19:25:18.229Z,8.40
2017-09-29T19:27:45.739Z,8.13
2017-09-29T19:30:13.975Z,8.47
2017-09-29T19:32:41.684Z,7.40
2017-09-29T19:35:09.230Z,8.07
2017-09-29T19:37:37.496Z,8.60
2017-09-29T19:40:05.732Z,8.30
2017-09-29T19:42:33.239Z,8.70
2017-09-29T19:45:01.516Z,9.37
2017-09-29T19:47:29.760Z,9.90
2017-09-29T19:49:57.277Z,8.93
2017-09-29T19:52:24.747Z,8.13
2017-09-29T19:54:52.215Z,8.83
2017-09-29T19:57:20.032Z,8.63
2017-09-29T19:59:48.596Z,9.40
2017-09-29T20:02:16.254Z,7.83
2017-09-29T20:04:44.504Z,8.50
2017-09-29T20:07:11.990Z,8.00
2017-09-29T20:09:40.585Z,7.10
2017-09-29T20:12:08.848Z,7.97
2017-09-29T20:14:36.319Z,7.67
2017-09-29T20:17:04.591Z,7.60
2017-09-29T20:19:32.906Z,6.77
2017-09-29T20:22:00.378Z,6.43
2017-09-29T20:24:27.875Z,6.10
2017-09-29T20:26:55.620Z,6.30
2017-09-29T20:29:23.467Z,5.77
2017-09-29T20:31:52.693Z,6.83
2017-09-29T20:34:20.531Z,6.27
2017-09-29T20:36:51.413Z,6.00
2017-09-29T20:39:19.928Z,6.20
2017-09-29T20:41:47.539Z,6.00
2017-09-29T20:44:19.202Z,6.03
2017-09-29T20:46:49.972Z,6.00
2017-09-29T20:49:20.127Z,6.50
2017-09-29T20:51:48.463Z,6.50
2017-09-29T20:54:19.073Z,6.83
2017-09-29T20:56:49.259Z,6.53
2017-09-29T20:59:17.649Z,6.37
2017-09-29T21:01:45.127Z,5.80
2017-09-29T21:04:13.404Z,6.03
2017-09-29T21:06:41.644Z,6.47
2017-09-29T21:09:09.220Z,5.23
2017-09-29T21:11:36.780Z,5.20
2017-09-29T21:14:04.278Z,5.03
2017-09-29T21:16:31.768Z,5.23
2017-09-29T21:18:59.368Z,6.10
2017-09-29T21:21:27.616Z,6.33
2017-09-29T21:23:55.923Z,5.93
2017-09-29T21:26:24.168Z,6.50
2017-09-29T21:28:51.680Z,6.13
2017-09-29T21:31:19.179Z,5.97
2017-09-29T21:33:47.441Z,5.70
2017-09-29T21:36:14.952Z,5.13
2017-09-29T21:38:43.229Z,6.30
2017-09-29T21:41:10.760Z,5.50
2017-09-29T21:43:38.211Z,5.43
2017-09-29T21:46:05.771Z,5.90
2017-09-29T21:48:33.506Z,5.60
2017-09-29T21:51:01.047Z,5.40
2017-09-29T21:53:29.141Z,6.20
2017-09-29T21:55:57.447Z,4.83
2017-09-29T21:58:25.725Z,6.03
2017-09-29T22:00:53.608Z,5.50
2017-09-29T22:03:21.850Z,6.03
2017-09-29T22:05:49.396Z,6.40
2017-09-29T22:08:16.897Z,5.70
2017-09-29T22:10:44.412Z,6.23
2017-09-29T22:13:11.960Z,5.70
2017-09-29T22:15:39.459Z,5.37
2017-09-29T22:18:07.723Z,5.80
2017-09-29T22:20:35.191Z,5.23
2017-09-29T22:23:03.443Z,5.00
2017-09-29T22:25:31.681Z,5.37
2017-09-29T22:27:59.143Z,4.67
2017-09-29T22:30:26.612Z,5.70
2017-09-29T22:32:54.075Z,4.97
2017-09-29T22:35:21.545Z,4.50
2017-09-29T22:37:49.634Z,5.00
2017-09-29T22:40:17.874Z,4.80
2017-09-29T22:42:45.339Z,5.30
2017-09-29T22:45:12.821Z,4.30
2017-09-29T22:47:40.308Z,4.27
2017-09-29T22:50:07.834Z,4.10
2017-09-29T22:52:36.096Z,4.37
2017-09-29T22:55:03.570Z,4.60
2017-09-29T22:57:31.042Z,4.40
2017-09-29T22:59:59.310Z,4.80
2017-09-29T23:02:27.533Z,4.37
2017-09-29T23:04:55.026Z,4.00
2017-09-29T23:07:22.608Z,3.97
2017-09-29T23:09:50.856Z,4.23
2017-09-29T23:12:18.337Z,5.00
2017-09-29T23:14:46.576Z,4.33
2017-09-29T23:17:14.060Z,4.00
2017-09-29T23:19:42.309Z,4.00
2017-09-29T23:22:10.552Z,4.57
2017-09-29T23:24:38.016Z,3.60
2017-09-29T23:27:06.284Z,3.43
2017-09-29T23:29:33.747Z,4.20
2017-09-29T23:32:01.204Z,3.47
2017-09-29T23:34:28.684Z,4.07
2017-09-29T23:36:56.167Z,3.53
2017-09-29T23:39:23.640Z,3.70
2017-09-29T23:41:51.891Z,4.43
2017-09-29T23:44:19.340Z,4.00
2017-09-29T23:46:46.795Z,3.80
2017-09-29T23:49:14.263Z,4.17
2017-09-29T23:51:42.584Z,4.40
2017-09-29T23:54:10.776Z,5.03
2017-09-29T23:56:38.257Z,4.47
2017-09-29T23:59:05.715Z,4.30
